sensor_id;sensor_type;location;lat;lon;timestamp;P1;durP1;ratioP1;P2;durP2;ratioP2
37309;SDS011;23195;47.744;7.358;2023-08-06T00:04:52;4.07;;;2.30;;
37309;SDS011;23195;47.744;7.358;2023-08-06T00:08:05;3.43;;;2.53;;
37309;SDS011;23195;47.744;7.358;2023-08-06T00:14:21;4.73;;;2.70;;
37309;SDS011;23195;47.744;7.358;2023-08-06T00:33:26;5.47;;;1.90;;
37309;SDS011;23195;47.744;7.358;2023-08-06T00:43:23;2.23;;;1.87;;
37309;SDS011;23195;47.744;7.358;2023-08-06T00:46:35;4.00;;;1.90;;
37309;SDS011;23195;47.744;7.358;2023-08-06T00:59:33;4.17;;;2.00;;
37309;SDS011;23195;47.744;7.358;2023-08-06T01:05:56;3.17;;;1.60;;
37309;SDS011;23195;47.744;7.358;2023-08-06T01:15:41;3.63;;;1.40;;
37309;SDS011;23195;47.744;7.358;2023-08-06T01:18:41;3.17;;;1.70;;
37309;SDS011;23195;47.744;7.358;2023-08-06T01:21:36;2.17;;;1.57;;
37309;SDS011;23195;47.744;7.358;2023-08-06T01:24:16;2.57;;;1.50;;
37309;SDS011;23195;47.744;7.358;2023-08-06T01:30:10;2.07;;;1.30;;
37309;SDS011;23195;47.744;7.358;2023-08-06T01:33:27;5.33;;;1.30;;
37309;SDS011;23195;47.744;7.358;2023-08-06T01:36:02;4.43;;;1.47;;
37309;SDS011;23195;47.744;7.358;2023-08-06T01:38:45;2.73;;;1.60;;
37309;SDS011;23195;47.744;7.358;2023-08-06T01:41:29;8.17;;;1.60;;
37309;SDS011;23195;47.744;7.358;2023-08-06T01:43:55;3.13;;;1.33;;
37309;SDS011;23195;47.744;7.358;2023-08-06T01:47:05;6.10;;;1.60;;
37309;SDS011;23195;47.744;7.358;2023-08-06T01:49:57;3.60;;;1.87;;
37309;SDS011;23195;47.744;7.358;2023-08-06T01:52:43;4.47;;;1.60;;
37309;SDS011;23195;47.744;7.358;2023-08-06T01:55:32;1.83;;;1.13;;
37309;SDS011;23195;47.744;7.358;2023-08-06T02:01:15;2.97;;;1.53;;
37309;SDS011;23195;47.744;7.358;2023-08-06T02:04:16;4.00;;;1.20;;
37309;SDS011;23195;47.744;7.358;2023-08-06T02:07:10;2.10;;;0.87;;
37309;SDS011;23195;47.744;7.358;2023-08-06T02:13:04;0.77;;;0.40;;
37309;SDS011;23195;47.744;7.358;2023-08-06T02:15:47;1.63;;;0.50;;
37309;SDS011;23195;47.744;7.358;2023-08-06T02:18:16;0.83;;;0.43;;
37309;SDS011;23195;47.744;7.358;2023-08-06T02:21:13;0.93;;;0.50;;
37309;SDS011;23195;47.744;7.358;2023-08-06T02:26:58;1.47;;;0.50;;
37309;SDS011;23195;47.744;7.358;2023-08-06T02:29:49;1.00;;;0.43;;
37309;SDS011;23195;47.744;7.358;2023-08-06T02:35:24;4.80;;;0.97;;
37309;SDS011;23195;47.744;7.358;2023-08-06T02:38:09;1.50;;;0.50;;
37309;SDS011;23195;47.744;7.358;2023-08-06T02:40:49;2.00;;;0.77;;
37309;SDS011;23195;47.744;7.358;2023-08-06T02:46:37;1.80;;;0.93;;
37309;SDS011;23195;47.744;7.358;2023-08-06T02:49:54;3.07;;;0.90;;
37309;SDS011;23195;47.744;7.358;2023-08-06T02:52:43;5.13;;;0.80;;
37309;SDS011;23195;47.744;7.358;2023-08-06T02:55:31;3.20;;;0.80;;
37309;SDS011;23195;47.744;7.358;2023-08-06T02:58:23;3.83;;;0.70;;
37309;SDS011;23195;47.744;7.358;2023-08-06T03:03:58;4.27;;;1.07;;
37309;SDS011;23195;47.744;7.358;2023-08-06T03:06:27;1.90;;;1.23;;
37309;SDS011;23195;47.744;7.358;2023-08-06T03:08:55;7.03;;;1.80;;
37309;SDS011;23195;47.744;7.358;2023-08-06T03:11:47;5.23;;;1.50;;
37309;SDS011;23195;47.744;7.358;2023-08-06T03:14:40;5.50;;;1.37;;
37309;SDS011;23195;47.744;7.358;2023-08-06T03:17:36;5.80;;;1.23;;
37309;SDS011;23195;47.744;7.358;2023-08-06T03:20:04;6.27;;;1.40;;
37309;SDS011;23195;47.744;7.358;2023-08-06T03:22:45;6.80;;;1.63;;
37309;SDS011;23195;47.744;7.358;2023-08-06T03:28:25;8.23;;;1.40;;
37309;SDS011;23195;47.744;7.358;2023-08-06T03:31:03;7.63;;;1.57;;
37309;SDS011;23195;47.744;7.358;2023-08-06T03:33:42;5.13;;;1.40;;
37309;SDS011;23195;47.744;7.358;2023-08-06T03:36:20;5.63;;;1.50;;
37309;SDS011;23195;47.744;7.358;2023-08-06T03:39:02;9.90;;;1.67;;
37309;SDS011;23195;47.744;7.358;2023-08-06T03:45:07;7.33;;;1.70;;
37309;SDS011;23195;47.744;7.358;2023-08-06T03:47:47;5.90;;;1.60;;
37309;SDS011;23195;47.744;7.358;2023-08-06T03:50:35;8.03;;;1.80;;
37309;SDS011;23195;47.744;7.358;2023-08-06T03:53:14;4.23;;;1.20;;
37309;SDS011;23195;47.744;7.358;2023-08-06T03:59:37;7.33;;;1.50;;
37309;SDS011;23195;47.744;7.358;2023-08-06T04:06:13;10.80;;;1.80;;
37309;SDS011;23195;47.744;7.358;2023-08-06T04:09:24;5.67;;;1.73;;
37309;SDS011;23195;47.744;7.358;2023-08-06T04:12:38;9.90;;;2.03;;
37309;SDS011;23195;47.744;7.358;2023-08-06T04:19:08;6.70;;;1.57;;
37309;SDS011;23195;47.744;7.358;2023-08-06T04:22:14;6.10;;;1.60;;
37309;SDS011;23195;47.744;7.358;2023-08-06T04:25:13;6.70;;;1.70;;
37309;SDS011;23195;47.744;7.358;2023-08-06T04:27:50;9.50;;;1.80;;
37309;SDS011;23195;47.744;7.358;2023-08-06T04:30:44;5.60;;;1.53;;
37309;SDS011;23195;47.744;7.358;2023-08-06T04:33:28;12.57;;;1.83;;
37309;SDS011;23195;47.744;7.358;2023-08-06T04:46:36;8.57;;;1.53;;
37309;SDS011;23195;47.744;7.358;2023-08-06T04:49:11;9.17;;;1.80;;
37309;SDS011;23195;47.744;7.358;2023-08-06T04:51:39;10.10;;;2.00;;
37309;SDS011;23195;47.744;7.358;2023-08-06T04:54:38;8.67;;;1.67;;
37309;SDS011;23195;47.744;7.358;2023-08-06T04:57:05;10.43;;;2.10;;
37309;SDS011;23195;47.744;7.358;2023-08-06T05:03:23;8.67;;;1.37;;
37309;SDS011;23195;47.744;7.358;2023-08-06T05:06:09;5.03;;;1.70;;
37309;SDS011;23195;47.744;7.358;2023-08-06T05:12:46;8.07;;;1.60;;
37309;SDS011;23195;47.744;7.358;2023-08-06T05:15:55;8.63;;;1.70;;
37309;SDS011;23195;47.744;7.358;2023-08-06T05:18:31;6.70;;;1.60;;
37309;SDS011;23195;47.744;7.358;2023-08-06T05:21:47;7.20;;;1.67;;
37309;SDS011;23195;47.744;7.358;2023-08-06T05:24:56;3.90;;;1.03;;
37309;SDS011;23195;47.744;7.358;2023-08-06T05:27:25;4.87;;;1.10;;
37309;SDS011;23195;47.744;7.358;2023-08-06T05:30:10;7.07;;;1.40;;
37309;SDS011;23195;47.744;7.358;2023-08-06T05:32:48;8.43;;;1.60;;
37309;SDS011;23195;47.744;7.358;2023-08-06T05:42:03;6.33;;;0.93;;
37309;SDS011;23195;47.744;7.358;2023-08-06T05:45:04;4.27;;;1.10;;
37309;SDS011;23195;47.744;7.358;2023-08-06T05:47:44;4.57;;;1.00;;
37309;SDS011;23195;47.744;7.358;2023-08-06T05:54:02;6.30;;;1.70;;
37309;SDS011;23195;47.744;7.358;2023-08-06T05:56:33;3.37;;;1.00;;
37309;SDS011;23195;47.744;7.358;2023-08-06T05:59:42;6.57;;;1.43;;
37309;SDS011;23195;47.744;7.358;2023-08-06T06:02:18;6.33;;;1.10;;
37309;SDS011;23195;47.744;7.358;2023-08-06T06:04:44;4.00;;;1.07;;
37309;SDS011;23195;47.744;7.358;2023-08-06T06:07:20;5.43;;;1.20;;
37309;SDS011;23195;47.744;7.358;2023-08-06T06:09:57;3.57;;;1.20;;
37309;SDS011;23195;47.744;7.358;2023-08-06T06:12:38;3.87;;;1.23;;
37309;SDS011;23195;47.744;7.358;2023-08-06T06:15:37;5.70;;;1.10;;
37309;SDS011;23195;47.744;7.358;2023-08-06T06:18:43;3.50;;;0.80;;
37309;SDS011;23195;47.744;7.358;2023-08-06T06:21:29;2.27;;;0.70;;
37309;SDS011;23195;47.744;7.358;2023-08-06T06:24:11;4.33;;;0.90;;
37309;SDS011;23195;47.744;7.358;2023-08-06T06:26:40;4.07;;;0.83;;
37309;SDS011;23195;47.744;7.358;2023-08-06T06:29:23;4.07;;;0.63;;
37309;SDS011;23195;47.744;7.358;2023-08-06T06:32:01;1.63;;;0.67;;
37309;SDS011;23195;47.744;7.358;2023-08-06T06:34:52;2.60;;;0.60;;
37309;SDS011;23195;47.744;7.358;2023-08-06T06:37:26;2.00;;;0.57;;
37309;SDS011;23195;47.744;7.358;2023-08-06T06:40:19;2.53;;;0.50;;
37309;SDS011;23195;47.744;7.358;2023-08-06T06:43:37;3.83;;;0.63;;
37309;SDS011;23195;47.744;7.358;2023-08-06T06:46:45;1.53;;;0.40;;
37309;SDS011;23195;47.744;7.358;2023-08-06T06:49:31;1.03;;;0.40;;
37309;SDS011;23195;47.744;7.358;2023-08-06T06:52:20;2.80;;;0.47;;
37309;SDS011;23195;47.744;7.358;2023-08-06T07:05:17;0.40;;;0.20;;
37309;SDS011;23195;47.744;7.358;2023-08-06T07:07:59;1.90;;;0.20;;
37309;SDS011;23195;47.744;7.358;2023-08-06T07:24:26;2.17;;;0.40;;
37309;SDS011;23195;47.744;7.358;2023-08-06T07:27:11;1.23;;;0.23;;
37309;SDS011;23195;47.744;7.358;2023-08-06T07:30:10;0.37;;;0.13;;
37309;SDS011;23195;47.744;7.358;2023-08-06T07:33:14;0.93;;;0.20;;
37309;SDS011;23195;47.744;7.358;2023-08-06T07:42:10;1.00;;;0.30;;
37309;SDS011;23195;47.744;7.358;2023-08-06T07:45:23;0.57;;;0.20;;
37309;SDS011;23195;47.744;7.358;2023-08-06T07:51:46;1.00;;;0.30;;
37309;SDS011;23195;47.744;7.358;2023-08-06T08:04:59;1.90;;;0.30;;
37309;SDS011;23195;47.744;7.358;2023-08-06T08:21:32;0.30;;;0.10;;
37309;SDS011;23195;47.744;7.358;2023-08-06T08:27:55;0.73;;;0.20;;
37309;SDS011;23195;47.744;7.358;2023-08-06T08:34:23;0.70;;;0.33;;
37309;SDS011;23195;47.744;7.358;2023-08-06T08:48:15;0.20;;;0.20;;
37309;SDS011;23195;47.744;7.358;2023-08-06T09:01:35;0.27;;;0.27;;
37309;SDS011;23195;47.744;7.358;2023-08-06T09:04:19;0.43;;;0.20;;
37309;SDS011;23195;47.744;7.358;2023-08-06T09:07:19;1.03;;;0.20;;
37309;SDS011;23195;47.744;7.358;2023-08-06T09:14:01;0.50;;;0.30;;
37309;SDS011;23195;47.744;7.358;2023-08-06T09:16:34;4.40;;;0.70;;
37309;SDS011;23195;47.744;7.358;2023-08-06T09:19:23;0.60;;;0.30;;
37309;SDS011;23195;47.744;7.358;2023-08-06T09:22:11;0.60;;;0.30;;
37309;SDS011;23195;47.744;7.358;2023-08-06T09:25:03;1.30;;;0.30;;
37309;SDS011;23195;47.744;7.358;2023-08-06T09:27:45;1.00;;;0.30;;
37309;SDS011;23195;47.744;7.358;2023-08-06T09:30:31;0.83;;;0.30;;
37309;SDS011;23195;47.744;7.358;2023-08-06T09:33:17;0.57;;;0.33;;
37309;SDS011;23195;47.744;7.358;2023-08-06T09:36:19;0.37;;;0.30;;
37309;SDS011;23195;47.744;7.358;2023-08-06T09:39:20;0.40;;;0.30;;
37309;SDS011;23195;47.744;7.358;2023-08-06T09:42:56;0.50;;;0.30;;
37309;SDS011;23195;47.744;7.358;2023-08-06T09:49:20;1.33;;;0.40;;
37309;SDS011;23195;47.744;7.358;2023-08-06T09:51:54;1.07;;;0.30;;
37309;SDS011;23195;47.744;7.358;2023-08-06T09:54:52;0.70;;;0.40;;
37309;SDS011;23195;47.744;7.358;2023-08-06T09:57:39;0.40;;;0.30;;
37309;SDS011;23195;47.744;7.358;2023-08-06T10:03:27;0.43;;;0.37;;
37309;SDS011;23195;47.744;7.358;2023-08-06T10:10:24;0.47;;;0.40;;
37309;SDS011;23195;47.744;7.358;2023-08-06T10:36:06;0.10;;;0.10;;
37309;SDS011;23195;47.744;7.358;2023-08-06T10:49:20;0.20;;;0.10;;
37309;SDS011;23195;47.744;7.358;2023-08-06T10:51:58;0.20;;;0.20;;
37309;SDS011;23195;47.744;7.358;2023-08-06T10:54:33;0.50;;;0.20;;
37309;SDS011;23195;47.744;7.358;2023-08-06T10:57:40;0.37;;;0.30;;
37309;SDS011;23195;47.744;7.358;2023-08-06T11:00:11;0.20;;;0.20;;
37309;SDS011;23195;47.744;7.358;2023-08-06T11:02:50;0.20;;;0.20;;
37309;SDS011;23195;47.744;7.358;2023-08-06T11:08:51;0.30;;;0.20;;
37309;SDS011;23195;47.744;7.358;2023-08-06T11:12:05;5.50;;;0.60;;
37309;SDS011;23195;47.744;7.358;2023-08-06T11:14:53;1.17;;;0.57;;
37309;SDS011;23195;47.744;7.358;2023-08-06T11:17:35;0.40;;;0.40;;
37309;SDS011;23195;47.744;7.358;2023-08-06T11:20:36;0.77;;;0.60;;
37309;SDS011;23195;47.744;7.358;2023-08-06T11:23:45;0.70;;;0.63;;
37309;SDS011;23195;47.744;7.358;2023-08-06T11:27:05;0.70;;;0.50;;
37309;SDS011;23195;47.744;7.358;2023-08-06T11:36:39;0.70;;;0.50;;
37309;SDS011;23195;47.744;7.358;2023-08-06T11:43:05;0.70;;;0.63;;
37309;SDS011;23195;47.744;7.358;2023-08-06T11:46:11;1.40;;;0.63;;
37309;SDS011;23195;47.744;7.358;2023-08-06T11:55:47;1.00;;;0.90;;
37309;SDS011;23195;47.744;7.358;2023-08-06T11:58:28;1.67;;;0.90;;
37309;SDS011;23195;47.744;7.358;2023-08-06T12:14:53;0.80;;;0.80;;
37309;SDS011;23195;47.744;7.358;2023-08-06T12:21:26;1.87;;;0.97;;
37309;SDS011;23195;47.744;7.358;2023-08-06T12:24:36;2.17;;;0.93;;
37309;SDS011;23195;47.744;7.358;2023-08-06T12:27:34;0.90;;;0.77;;
37309;SDS011;23195;47.744;7.358;2023-08-06T12:30:46;1.37;;;0.77;;
37309;SDS011;23195;47.744;7.358;2023-08-06T12:33:21;1.30;;;0.70;;
37309;SDS011;23195;47.744;7.358;2023-08-06T12:35:55;2.10;;;0.73;;
37309;SDS011;23195;47.744;7.358;2023-08-06T12:38:37;0.70;;;0.70;;
37309;SDS011;23195;47.744;7.358;2023-08-06T12:41:18;1.23;;;0.80;;
37309;SDS011;23195;47.744;7.358;2023-08-06T12:44:12;0.97;;;0.70;;
37309;SDS011;23195;47.744;7.358;2023-08-06T12:46:50;1.23;;;0.90;;
37309;SDS011;23195;47.744;7.358;2023-08-06T12:49:17;0.80;;;0.80;;
37309;SDS011;23195;47.744;7.358;2023-08-06T12:51:54;2.47;;;0.70;;
37309;SDS011;23195;47.744;7.358;2023-08-06T12:54:35;1.77;;;0.70;;
37309;SDS011;23195;47.744;7.358;2023-08-06T12:57:14;0.93;;;0.60;;
37309;SDS011;23195;47.744;7.358;2023-08-06T12:59:40;0.90;;;0.60;;
37309;SDS011;23195;47.744;7.358;2023-08-06T13:02:16;0.77;;;0.60;;
37309;SDS011;23195;47.744;7.358;2023-08-06T13:04:58;0.87;;;0.50;;
37309;SDS011;23195;47.744;7.358;2023-08-06T13:07:49;1.87;;;0.60;;
37309;SDS011;23195;47.744;7.358;2023-08-06T13:10:19;1.50;;;0.70;;
37309;SDS011;23195;47.744;7.358;2023-08-06T13:13:03;1.57;;;0.83;;
37309;SDS011;23195;47.744;7.358;2023-08-06T13:15:33;1.10;;;0.87;;
37309;SDS011;23195;47.744;7.358;2023-08-06T13:18:01;1.47;;;0.80;;
37309;SDS011;23195;47.744;7.358;2023-08-06T13:20:38;2.57;;;0.80;;
37309;SDS011;23195;47.744;7.358;2023-08-06T13:23:20;1.40;;;0.83;;
37309;SDS011;23195;47.744;7.358;2023-08-06T13:26:04;0.97;;;0.70;;
37309;SDS011;23195;47.744;7.358;2023-08-06T13:28:45;1.63;;;0.80;;
37309;SDS011;23195;47.744;7.358;2023-08-06T13:31:23;0.97;;;0.60;;
37309;SDS011;23195;47.744;7.358;2023-08-06T13:34:07;1.07;;;0.60;;
37309;SDS011;23195;47.744;7.358;2023-08-06T13:36:33;1.00;;;0.90;;
37309;SDS011;23195;47.744;7.358;2023-08-06T13:39:11;1.00;;;0.63;;
37309;SDS011;23195;47.744;7.358;2023-08-06T13:41:51;1.47;;;0.87;;
37309;SDS011;23195;47.744;7.358;2023-08-06T13:44:28;2.90;;;1.10;;
37309;SDS011;23195;47.744;7.358;2023-08-06T13:47:02;1.13;;;0.90;;
37309;SDS011;23195;47.744;7.358;2023-08-06T13:49:33;2.40;;;0.90;;
37309;SDS011;23195;47.744;7.358;2023-08-06T13:52:26;2.30;;;0.97;;
37309;SDS011;23195;47.744;7.358;2023-08-06T13:54:56;1.10;;;0.80;;
37309;SDS011;23195;47.744;7.358;2023-08-06T13:57:23;0.90;;;0.80;;
37309;SDS011;23195;47.744;7.358;2023-08-06T13:59:48;1.90;;;1.00;;
37309;SDS011;23195;47.744;7.358;2023-08-06T14:02:17;1.23;;;0.70;;
37309;SDS011;23195;47.744;7.358;2023-08-06T14:04:55;4.83;;;0.97;;
37309;SDS011;23195;47.744;7.358;2023-08-06T14:07:30;2.87;;;0.90;;
37309;SDS011;23195;47.744;7.358;2023-08-06T14:09:58;1.60;;;1.00;;
37309;SDS011;23195;47.744;7.358;2023-08-06T14:12:34;2.10;;;1.00;;
37309;SDS011;23195;47.744;7.358;2023-08-06T14:15:11;2.73;;;1.00;;
37309;SDS011;23195;47.744;7.358;2023-08-06T14:17:47;1.47;;;1.00;;
37309;SDS011;23195;47.744;7.358;2023-08-06T14:20:25;2.20;;;1.10;;
37309;SDS011;23195;47.744;7.358;2023-08-06T14:22:58;1.57;;;1.10;;
37309;SDS011;23195;47.744;7.358;2023-08-06T14:25:48;2.13;;;0.90;;
37309;SDS011;23195;47.744;7.358;2023-08-06T14:28:26;1.83;;;0.90;;
37309;SDS011;23195;47.744;7.358;2023-08-06T14:30:57;2.00;;;1.07;;
37309;SDS011;23195;47.744;7.358;2023-08-06T14:33:28;1.90;;;1.10;;
37309;SDS011;23195;47.744;7.358;2023-08-06T14:36:03;1.13;;;0.90;;
37309;SDS011;23195;47.744;7.358;2023-08-06T14:38:42;2.23;;;1.03;;
37309;SDS011;23195;47.744;7.358;2023-08-06T14:41:15;1.70;;;0.90;;
37309;SDS011;23195;47.744;7.358;2023-08-06T14:43:44;1.07;;;0.80;;
37309;SDS011;23195;47.744;7.358;2023-08-06T14:46:31;1.63;;;1.00;;
37309;SDS011;23195;47.744;7.358;2023-08-06T14:49:24;1.80;;;1.00;;
37309;SDS011;23195;47.744;7.358;2023-08-06T14:58:25;2.43;;;1.20;;
37309;SDS011;23195;47.744;7.358;2023-08-06T15:01:07;1.70;;;1.00;;
37309;SDS011;23195;47.744;7.358;2023-08-06T15:03:55;2.47;;;1.13;;
37309;SDS011;23195;47.744;7.358;2023-08-06T15:10:17;1.47;;;1.17;;
37309;SDS011;23195;47.744;7.358;2023-08-06T15:13:04;1.27;;;0.93;;
37309;SDS011;23195;47.744;7.358;2023-08-06T15:15:33;1.90;;;1.10;;
37309;SDS011;23195;47.744;7.358;2023-08-06T15:18:20;1.63;;;1.30;;
37309;SDS011;23195;47.744;7.358;2023-08-06T15:21:40;1.57;;;1.07;;
37309;SDS011;23195;47.744;7.358;2023-08-06T15:24:24;1.47;;;1.10;;
37309;SDS011;23195;47.744;7.358;2023-08-06T15:27:30;2.17;;;1.30;;
37309;SDS011;23195;47.744;7.358;2023-08-06T15:30:07;3.40;;;1.33;;
37309;SDS011;23195;47.744;7.358;2023-08-06T15:33:02;2.43;;;1.27;;
37309;SDS011;23195;47.744;7.358;2023-08-06T15:36:08;2.63;;;1.20;;
37309;SDS011;23195;47.744;7.358;2023-08-06T15:38:37;1.30;;;1.20;;
37309;SDS011;23195;47.744;7.358;2023-08-06T15:41:11;1.73;;;1.27;;
37309;SDS011;23195;47.744;7.358;2023-08-06T15:43:50;1.67;;;1.10;;
37309;SDS011;23195;47.744;7.358;2023-08-06T15:50:03;1.83;;;1.27;;
37309;SDS011;23195;47.744;7.358;2023-08-06T15:53:03;3.10;;;1.17;;
37309;SDS011;23195;47.744;7.358;2023-08-06T15:56:03;3.17;;;1.20;;
37309;SDS011;23195;47.744;7.358;2023-08-06T15:59:27;2.10;;;1.03;;
37309;SDS011;23195;47.744;7.358;2023-08-06T16:12:45;3.00;;;1.20;;
37309;SDS011;23195;47.744;7.358;2023-08-06T16:36:55;2.10;;;1.20;;
37309;SDS011;23195;47.744;7.358;2023-08-06T16:40:00;1.60;;;1.23;;
37309;SDS011;23195;47.744;7.358;2023-08-06T16:46:31;3.23;;;1.50;;
37309;SDS011;23195;47.744;7.358;2023-08-06T16:49:20;3.07;;;1.60;;
37309;SDS011;23195;47.744;7.358;2023-08-06T16:52:09;2.13;;;1.40;;
37309;SDS011;23195;47.744;7.358;2023-08-06T16:55:11;1.60;;;1.37;;
37309;SDS011;23195;47.744;7.358;2023-08-06T16:57:47;4.07;;;1.60;;
37309;SDS011;23195;47.744;7.358;2023-08-06T17:00:42;3.23;;;1.40;;
37309;SDS011;23195;47.744;7.358;2023-08-06T17:06:37;3.83;;;1.47;;
37309;SDS011;23195;47.744;7.358;2023-08-06T17:09:22;2.07;;;1.30;;
37309;SDS011;23195;47.744;7.358;2023-08-06T17:11:51;2.73;;;1.30;;
37309;SDS011;23195;47.744;7.358;2023-08-06T17:14:49;2.40;;;1.50;;
37309;SDS011;23195;47.744;7.358;2023-08-06T17:20:34;4.47;;;1.60;;
37309;SDS011;23195;47.744;7.358;2023-08-06T17:23:00;2.40;;;1.40;;
37309;SDS011;23195;47.744;7.358;2023-08-06T17:25:39;1.77;;;1.50;;
37309;SDS011;23195;47.744;7.358;2023-08-06T17:28:55;2.63;;;1.60;;
37309;SDS011;23195;47.744;7.358;2023-08-06T17:31:29;2.37;;;1.43;;
37309;SDS011;23195;47.744;7.358;2023-08-06T17:43:58;2.23;;;1.60;;
37309;SDS011;23195;47.744;7.358;2023-08-06T17:46:58;3.37;;;1.60;;
37309;SDS011;23195;47.744;7.358;2023-08-06T17:49:37;3.23;;;1.80;;
37309;SDS011;23195;47.744;7.358;2023-08-06T17:55:09;2.83;;;1.70;;
37309;SDS011;23195;47.744;7.358;2023-08-06T17:57:57;4.63;;;1.90;;
37309;SDS011;23195;47.744;7.358;2023-08-06T18:00:31;4.93;;;1.40;;
37309;SDS011;23195;47.744;7.358;2023-08-06T18:09:53;3.93;;;1.40;;
37309;SDS011;23195;47.744;7.358;2023-08-06T18:12:32;2.37;;;1.57;;
37309;SDS011;23195;47.744;7.358;2023-08-06T18:15:17;2.67;;;1.60;;
37309;SDS011;23195;47.744;7.358;2023-08-06T18:21:17;4.23;;;1.57;;
37309;SDS011;23195;47.744;7.358;2023-08-06T18:24:12;3.00;;;1.47;;
37309;SDS011;23195;47.744;7.358;2023-08-06T18:30:42;3.97;;;1.97;;
37309;SDS011;23195;47.744;7.358;2023-08-06T18:40:18;4.30;;;1.70;;
37309;SDS011;23195;47.744;7.358;2023-08-06T18:49:41;2.90;;;1.73;;
37309;SDS011;23195;47.744;7.358;2023-08-06T18:56:08;3.00;;;1.53;;
37309;SDS011;23195;47.744;7.358;2023-08-06T19:03:11;3.67;;;1.40;;
37309;SDS011;23195;47.744;7.358;2023-08-06T19:06:18;4.37;;;1.77;;
37309;SDS011;23195;47.744;7.358;2023-08-06T19:23:16;3.83;;;1.53;;
37309;SDS011;23195;47.744;7.358;2023-08-06T20:11:50;5.80;;;1.90;;
37309;SDS011;23195;47.744;7.358;2023-08-06T20:35:31;4.90;;;1.40;;
37309;SDS011;23195;47.744;7.358;2023-08-06T20:38:16;3.20;;;1.50;;
37309;SDS011;23195;47.744;7.358;2023-08-06T20:44:26;2.50;;;1.50;;
37309;SDS011;23195;47.744;7.358;2023-08-06T20:50:44;2.73;;;1.60;;
37309;SDS011;23195;47.744;7.358;2023-08-06T20:53:39;4.43;;;1.70;;
37309;SDS011;23195;47.744;7.358;2023-08-06T21:06:40;5.30;;;1.80;;
37309;SDS011;23195;47.744;7.358;2023-08-06T21:13:08;3.57;;;1.57;;
37309;SDS011;23195;47.744;7.358;2023-08-06T21:19:01;2.20;;;1.63;;
37309;SDS011;23195;47.744;7.358;2023-08-06T21:21:44;3.43;;;1.70;;
37309;SDS011;23195;47.744;7.358;2023-08-06T21:27:36;4.37;;;1.80;;
37309;SDS011;23195;47.744;7.358;2023-08-06T21:30:08;3.80;;;1.37;;
37309;SDS011;23195;47.744;7.358;2023-08-06T21:33:03;3.27;;;1.67;;
37309;SDS011;23195;47.744;7.358;2023-08-06T21:39:26;3.60;;;1.73;;
37309;SDS011;23195;47.744;7.358;2023-08-06T21:42:04;3.17;;;1.77;;
37309;SDS011;23195;47.744;7.358;2023-08-06T21:44:41;5.43;;;1.70;;
37309;SDS011;23195;47.744;7.358;2023-08-06T21:50:51;3.13;;;1.67;;
37309;SDS011;23195;47.744;7.358;2023-08-06T21:53:29;3.97;;;1.77;;
37309;SDS011;23195;47.744;7.358;2023-08-06T21:56:41;3.33;;;1.57;;
37309;SDS011;23195;47.744;7.358;2023-08-06T21:59:22;2.10;;;1.53;;
37309;SDS011;23195;47.744;7.358;2023-08-06T22:05:45;5.30;;;1.80;;
37309;SDS011;23195;47.744;7.358;2023-08-06T22:08:43;4.07;;;1.70;;
37309;SDS011;23195;47.744;7.358;2023-08-06T22:14:48;2.67;;;1.70;;
37309;SDS011;23195;47.744;7.358;2023-08-06T22:17:27;3.37;;;1.87;;
37309;SDS011;23195;47.744;7.358;2023-08-06T22:23:22;2.87;;;1.80;;
37309;SDS011;23195;47.744;7.358;2023-08-06T22:26:27;4.83;;;1.80;;
37309;SDS011;23195;47.744;7.358;2023-08-06T22:29:09;5.30;;;1.73;;
37309;SDS011;23195;47.744;7.358;2023-08-06T22:31:40;4.27;;;1.70;;
37309;SDS011;23195;47.744;7.358;2023-08-06T22:34:35;2.63;;;1.83;;
37309;SDS011;23195;47.744;7.358;2023-08-06T22:37:48;2.23;;;1.80;;
37309;SDS011;23195;47.744;7.358;2023-08-06T22:40:25;5.97;;;2.00;;
37309;SDS011;23195;47.744;7.358;2023-08-06T22:46:55;4.33;;;1.90;;
37309;SDS011;23195;47.744;7.358;2023-08-06T22:49:35;3.77;;;1.90;;
37309;SDS011;23195;47.744;7.358;2023-08-06T22:52:29;3.63;;;2.10;;
37309;SDS011;23195;47.744;7.358;2023-08-06T22:55:02;3.23;;;1.77;;
37309;SDS011;23195;47.744;7.358;2023-08-06T22:57:54;3.30;;;1.70;;
37309;SDS011;23195;47.744;7.358;2023-08-06T23:12:56;4.17;;;1.90;;
37309;SDS011;23195;47.744;7.358;2023-08-06T23:18:46;2.80;;;1.53;;
37309;SDS011;23195;47.744;7.358;2023-08-06T23:21:24;4.20;;;1.90;;
37309;SDS011;23195;47.744;7.358;2023-08-06T23:24:02;5.00;;;2.30;;
37309;SDS011;23195;47.744;7.358;2023-08-06T23:27:01;4.23;;;1.90;;
37309;SDS011;23195;47.744;7.358;2023-08-06T23:29:40;5.97;;;2.20;;
37309;SDS011;23195;47.744;7.358;2023-08-06T23:32:45;3.97;;;1.70;;
37309;SDS011;23195;47.744;7.358;2023-08-06T23:35:41;3.03;;;1.80;;
37309;SDS011;23195;47.744;7.358;2023-08-06T23:38:52;4.37;;;2.00;;
37309;SDS011;23195;47.744;7.358;2023-08-06T23:41:41;4.37;;;1.93;;
37309;SDS011;23195;47.744;7.358;2023-08-06T23:44:48;4.70;;;1.70;;
37309;SDS011;23195;47.744;7.358;2023-08-06T23:47:32;3.03;;;1.87;;
37309;SDS011;23195;47.744;7.358;2023-08-06T23:50:27;4.90;;;2.00;;
37309;SDS011;23195;47.744;7.358;2023-08-06T23:53:06;5.90;;;1.80;;
37309;SDS011;23195;47.744;7.358;2023-08-06T23:56:09;3.53;;;1.80;;
37309;SDS011;23195;47.744;7.358;2023-08-06T23:59:33;2.93;;;1.90;;
